createdAt,value
2018-09-03T00:01:42.006Z,37.20
2018-09-03T00:04:11.187Z,34.90
2018-09-03T00:06:40.425Z,29.80
2018-09-03T00:09:11.470Z,31.68
2018-09-03T00:11:40.641Z,30.55
2018-09-03T00:14:13.466Z,36.93
2018-09-03T00:16:42.563Z,29.82
2018-09-03T00:19:11.747Z,30.50
2018-09-03T00:21:40.841Z,31.62
2018-09-03T00:24:10.517Z,33.85
2018-09-03T00:26:40.725Z,32.50
2018-09-03T00:29:10.654Z,35.30
2018-09-03T00:31:45.932Z,34.80
2018-09-03T00:34:20.427Z,33.65
2018-09-03T00:36:54.788Z,36.08
2018-09-03T00:39:29.202Z,32.53
2018-09-03T00:42:03.581Z,34.30
2018-09-03T00:44:38.022Z,31.52
2018-09-03T00:47:09.110Z,34.70
2018-09-03T00:49:38.308Z,32.75
2018-09-03T00:52:07.537Z,33.33
2018-09-03T00:54:37.836Z,32.13
2018-09-03T00:57:06.883Z,29.77
2018-09-03T00:59:35.955Z,32.23
2018-09-03T01:02:05.116Z,31.30
2018-09-03T01:04:34.334Z,28.47
2018-09-03T01:07:03.473Z,29.63
2018-09-03T01:09:32.574Z,33.63
2018-09-03T01:12:01.791Z,41.13
2018-09-03T01:14:31.002Z,54.30
2018-09-03T01:17:00.206Z,58.10
2018-09-03T01:19:29.438Z,66.87
2018-09-03T01:21:58.619Z,59.30
2018-09-03T01:24:27.758Z,56.63
2018-09-03T01:26:56.910Z,51.08
2018-09-03T01:29:27.312Z,44.60
2018-09-03T01:31:57.000Z,54.00
2018-09-03T01:34:27.601Z,42.47
2018-09-03T01:36:56.849Z,45.97
2018-09-03T01:39:26.056Z,42.87
2018-09-03T01:41:55.258Z,43.13
2018-09-03T01:44:24.414Z,38.80
2018-09-03T01:46:53.534Z,38.10
2018-09-03T01:49:22.758Z,39.30
2018-09-03T01:51:51.854Z,33.42
2018-09-03T01:54:20.999Z,37.67
2018-09-03T01:56:50.161Z,34.08
2018-09-03T01:59:19.369Z,34.77
2018-09-03T02:01:49.365Z,32.90
2018-09-03T02:04:18.592Z,35.00
2018-09-03T02:06:47.800Z,29.00
2018-09-03T02:09:16.974Z,33.93
2018-09-03T02:11:46.206Z,35.70
2018-09-03T02:14:15.402Z,31.67
2018-09-03T02:16:44.654Z,28.67
2018-09-03T02:19:13.847Z,32.83
2018-09-03T02:21:42.929Z,30.43
2018-09-03T02:24:12.091Z,29.20
2018-09-03T02:26:41.735Z,28.60
2018-09-03T02:29:11.626Z,30.70
2018-09-03T02:31:41.676Z,29.94
2018-09-03T02:34:11.750Z,30.37
2018-09-03T02:36:41.731Z,32.90
2018-09-03T02:39:11.829Z,38.00
2018-09-03T02:41:41.822Z,31.36
2018-09-03T02:44:11.820Z,32.03
2018-09-03T02:46:41.847Z,37.22
2018-09-03T02:49:11.977Z,32.98
2018-09-03T02:51:41.902Z,32.86
2018-09-03T02:54:11.963Z,35.08
2018-09-03T02:56:41.931Z,30.98
2018-09-03T02:59:12.050Z,28.87
2018-09-03T03:01:41.905Z,27.72
2018-09-03T03:04:11.912Z,29.32
2018-09-03T03:06:41.917Z,33.42
2018-09-03T03:09:12.038Z,27.80
2018-09-03T03:11:42.013Z,34.94
2018-09-03T03:14:12.195Z,30.30
2018-09-03T03:16:42.101Z,33.08
2018-09-03T03:19:12.275Z,31.52
2018-09-03T03:21:42.129Z,26.68
2018-09-03T03:24:12.312Z,30.75
2018-09-03T03:26:42.126Z,31.46
2018-09-03T03:29:12.165Z,35.17
2018-09-03T03:31:42.263Z,28.20
2018-09-03T03:34:12.218Z,28.85
2018-09-03T03:36:42.214Z,27.52
2018-09-03T03:39:12.308Z,36.65
2018-09-03T03:41:42.166Z,31.70
2018-09-03T03:44:12.323Z,27.20
2018-09-03T03:46:42.298Z,29.98
2018-09-03T03:49:12.362Z,26.27
2018-09-03T03:51:42.436Z,32.67
2018-09-03T03:54:12.398Z,30.62
2018-09-03T03:56:42.374Z,30.70
2018-09-03T03:59:12.503Z,27.02
2018-09-03T04:01:42.502Z,37.86
2018-09-03T04:04:12.467Z,30.90
2018-09-03T04:06:42.518Z,29.92
2018-09-03T04:09:12.638Z,25.92
2018-09-03T04:11:42.593Z,32.70
2018-09-03T04:14:12.670Z,26.97
2018-09-03T04:16:42.626Z,33.02
2018-09-03T04:19:12.606Z,41.77
2018-09-03T04:21:42.582Z,29.90
2018-09-03T04:24:12.922Z,33.38
2018-09-03T04:26:42.623Z,34.62
2018-09-03T04:29:12.650Z,27.75
2018-09-03T04:31:42.648Z,32.50
2018-09-03T04:34:12.790Z,35.55
2018-09-03T04:36:42.791Z,36.06
2018-09-03T04:39:12.894Z,32.17
2018-09-03T04:41:42.775Z,30.12
2018-09-03T04:44:12.865Z,31.23
2018-09-03T04:46:42.667Z,36.88
2018-09-03T04:49:12.942Z,39.78
2018-09-03T04:51:42.899Z,38.78
2018-09-03T04:54:12.935Z,34.38
2018-09-03T04:56:42.963Z,37.36
2018-09-03T04:59:12.978Z,35.15
2018-09-03T05:01:42.886Z,34.40
2018-09-03T05:04:13.257Z,33.20
2018-09-03T05:06:43.118Z,44.05
2018-09-03T05:09:13.256Z,44.40
2018-09-03T05:11:43.217Z,38.33
2018-09-03T05:14:13.266Z,39.40
2018-09-03T05:16:43.185Z,50.26
2018-09-03T05:19:13.122Z,52.78
2018-09-03T05:21:43.167Z,51.66
2018-09-03T05:24:13.157Z,58.05
2018-09-03T05:26:43.678Z,57.58
2018-09-03T05:29:13.330Z,52.03
2018-09-03T05:31:43.322Z,47.88
2018-09-03T05:34:13.350Z,46.75
2018-09-03T05:36:43.239Z,55.80
2018-09-03T05:39:13.881Z,55.05
2018-09-03T05:41:43.396Z,55.50
2018-09-03T05:44:13.410Z,46.45
2018-09-03T05:46:43.408Z,48.72
2018-09-03T05:49:13.414Z,56.05
2018-09-03T05:51:43.410Z,47.27
2018-09-03T05:54:13.446Z,52.08
2018-09-03T05:56:43.490Z,55.94
2018-09-03T05:59:13.545Z,54.40
2018-09-03T06:01:43.443Z,56.36
2018-09-03T06:04:13.590Z,55.50
2018-09-03T06:06:43.609Z,51.70
2018-09-03T06:09:13.732Z,52.10
2018-09-03T06:11:43.695Z,53.28
2018-09-03T06:14:13.673Z,49.10
2018-09-03T06:16:43.691Z,54.48
2018-09-03T06:19:13.705Z,49.23
2018-09-03T06:21:43.765Z,52.34
2018-09-03T06:24:13.706Z,45.05
2018-09-03T06:26:43.763Z,46.86
2018-09-03T06:29:13.806Z,46.85
2018-09-03T06:31:43.814Z,42.84
2018-09-03T06:34:13.675Z,45.55
2018-09-03T06:36:43.817Z,48.12
2018-09-03T06:39:13.838Z,47.35
2018-09-03T06:41:43.890Z,53.50
2018-09-03T06:44:13.867Z,54.53
2018-09-03T06:46:43.983Z,50.20
2018-09-03T06:49:14.072Z,47.88
2018-09-03T06:51:44.058Z,41.48
2018-09-03T06:54:14.163Z,48.80
2018-09-03T06:56:44.095Z,42.75
2018-09-03T06:59:14.122Z,45.28
2018-09-03T07:01:44.094Z,49.44
2018-09-03T07:04:14.205Z,48.30
2018-09-03T07:06:44.267Z,48.04
2018-09-03T07:09:14.262Z,44.05
2018-09-03T07:11:44.116Z,44.42
2018-09-03T07:14:14.246Z,51.48
2018-09-03T07:16:44.219Z,42.82
2018-09-03T07:19:14.267Z,47.10
2018-09-03T07:21:44.262Z,48.83
2018-09-03T07:24:14.290Z,39.98
2018-09-03T07:26:44.361Z,40.70
2018-09-03T07:29:14.377Z,42.33
2018-09-03T07:31:44.358Z,73.92
2018-09-03T07:34:14.374Z,34.88
2018-09-03T07:36:44.555Z,35.34
2018-09-03T07:39:14.409Z,32.73
2018-09-03T07:41:44.360Z,37.85
2018-09-03T07:44:14.406Z,36.80
2018-09-03T07:46:44.469Z,30.02
2018-09-03T07:49:14.651Z,32.93
2018-09-03T07:51:44.664Z,25.46
2018-09-03T07:54:14.749Z,36.85
2018-09-03T07:56:44.729Z,44.36
2018-09-03T07:59:14.646Z,24.60
2018-09-03T08:01:44.670Z,34.04
2018-09-03T08:04:14.713Z,31.33
2018-09-03T08:06:44.790Z,24.10
2018-09-03T08:09:14.833Z,26.55
2018-09-03T08:11:44.831Z,25.06
2018-09-03T08:14:14.896Z,22.85
2018-09-03T08:16:44.862Z,26.82
2018-09-03T08:19:14.783Z,20.65
2018-09-03T08:21:51.578Z,22.12
2018-09-03T08:24:20.779Z,20.00
2018-09-03T08:26:50.112Z,26.83
2018-09-03T08:29:19.510Z,26.82
2018-09-03T08:31:48.730Z,20.53
2018-09-03T08:34:17.945Z,27.13
2018-09-03T08:36:47.107Z,23.03
2018-09-03T08:39:16.309Z,35.63
2018-09-03T08:41:45.498Z,31.37
2018-09-03T08:44:15.174Z,37.33
2018-09-03T08:46:45.173Z,27.37
2018-09-03T08:49:15.254Z,30.55
2018-09-03T08:51:45.150Z,26.06
2018-09-03T08:54:15.230Z,22.77
2018-09-03T08:56:45.330Z,30.18
2018-09-03T08:59:15.368Z,23.07
2018-09-03T09:01:45.225Z,20.50
2018-09-03T09:04:15.422Z,26.35
2018-09-03T09:06:45.322Z,20.40
2018-09-03T09:09:15.337Z,23.00
2018-09-03T09:11:45.434Z,21.07
2018-09-03T09:14:15.527Z,21.23
2018-09-03T09:16:45.529Z,20.72
2018-09-03T09:19:15.466Z,18.98
2018-09-03T09:21:45.814Z,22.52
2018-09-03T09:24:15.486Z,17.87
2018-09-03T09:26:45.557Z,72.80
2018-09-03T09:29:15.475Z,19.60
2018-09-03T09:31:45.901Z,17.32
2018-09-03T09:34:15.578Z,19.98
2018-09-03T09:36:45.728Z,18.70
2018-09-03T09:39:15.730Z,25.05
2018-09-03T09:41:45.741Z,13.88
2018-09-03T09:44:15.790Z,16.37
2018-09-03T09:46:45.698Z,15.92
2018-09-03T09:49:15.693Z,19.45
2018-09-03T09:51:45.734Z,17.32
2018-09-03T09:54:15.779Z,14.10
2018-09-03T09:56:45.822Z,18.42
2018-09-03T09:59:15.796Z,12.33
2018-09-03T10:01:45.833Z,17.08
2018-09-03T10:04:15.861Z,14.93
2018-09-03T10:06:45.904Z,15.10
2018-09-03T10:09:15.877Z,12.58
2018-09-03T10:11:45.933Z,13.76
2018-09-03T10:14:15.866Z,15.80
2018-09-03T10:16:45.929Z,15.54
2018-09-03T10:19:16.086Z,12.65
2018-09-03T10:21:46.007Z,12.76
2018-09-03T10:24:16.030Z,17.92
2018-09-03T10:26:46.180Z,12.26
2018-09-03T10:29:16.226Z,12.78
2018-09-03T10:31:46.264Z,12.22
2018-09-03T10:34:16.271Z,13.43
2018-09-03T10:36:46.208Z,14.75
2018-09-03T10:39:16.277Z,10.40
2018-09-03T10:41:46.271Z,16.32
2018-09-03T10:44:16.237Z,11.30
2018-09-03T10:46:47.677Z,10.92
2018-09-03T10:49:16.835Z,18.50
2018-09-03T10:51:46.267Z,11.40
2018-09-03T10:54:16.408Z,16.00
2018-09-03T10:56:46.408Z,9.93
2018-09-03T10:59:16.578Z,7.72
2018-09-03T11:01:46.393Z,7.33
2018-09-03T11:04:16.358Z,6.05
2018-09-03T11:06:46.532Z,6.42
2018-09-03T11:09:16.455Z,7.35
2018-09-03T11:11:46.478Z,8.48
2018-09-03T11:14:16.559Z,8.80
2018-09-03T11:16:46.572Z,8.83
2018-09-03T11:19:17.935Z,11.03
2018-09-03T11:21:47.110Z,7.67
2018-09-03T11:24:16.579Z,7.97
2018-09-03T11:26:46.715Z,8.35
2018-09-03T11:29:16.661Z,8.40
2018-09-03T11:31:46.754Z,7.47
2018-09-03T11:34:16.708Z,8.98
2018-09-03T11:36:46.739Z,6.92
2018-09-03T11:39:16.803Z,7.30
2018-09-03T11:41:46.679Z,8.38
2018-09-03T11:44:16.735Z,9.55
2018-09-03T11:46:46.817Z,6.97
2018-09-03T11:49:16.835Z,7.42
2018-09-03T11:51:46.796Z,8.00
2018-09-03T11:54:16.925Z,7.17
2018-09-03T11:56:46.870Z,5.80
2018-09-03T11:59:16.821Z,5.47
2018-09-03T12:01:46.841Z,4.83
2018-09-03T12:04:16.934Z,6.03
2018-09-03T12:06:47.127Z,9.75
2018-09-03T12:09:17.025Z,5.55
2018-09-03T12:11:46.922Z,6.83
2018-09-03T12:14:20.850Z,6.00
2018-09-03T12:16:50.013Z,48.83
2018-09-03T12:19:19.266Z,11.37
2018-09-03T12:21:48.402Z,8.33
2018-09-03T12:24:17.596Z,9.23
2018-09-03T12:26:47.198Z,11.00
2018-09-03T12:29:17.142Z,6.22
2018-09-03T12:31:47.017Z,5.27
2018-09-03T12:34:17.113Z,8.98
2018-09-03T12:36:47.150Z,8.05
2018-09-03T12:39:17.108Z,5.30
2018-09-03T12:41:47.167Z,5.92
2018-09-03T12:44:17.306Z,6.25
2018-09-03T12:46:47.322Z,6.85
2018-09-03T12:49:17.379Z,9.00
2018-09-03T12:51:47.249Z,6.00
2018-09-03T12:54:17.313Z,8.15
2018-09-03T12:56:47.369Z,5.12
2018-09-03T12:59:17.426Z,7.15
2018-09-03T13:01:47.318Z,13.45
2018-09-03T13:04:17.435Z,11.00
2018-09-03T13:06:47.425Z,7.35
2018-09-03T13:09:17.486Z,4.78
2018-09-03T13:11:47.479Z,5.42
2018-09-03T13:14:17.419Z,8.55
2018-09-03T13:16:47.555Z,6.05
2018-09-03T13:19:17.483Z,5.33
2018-09-03T13:21:47.638Z,5.55
2018-09-03T13:24:17.535Z,5.50
2018-09-03T13:26:54.027Z,5.78
2018-09-03T13:29:23.174Z,5.37
2018-09-03T13:31:52.398Z,4.62
2018-09-03T13:34:21.586Z,5.40
2018-09-03T13:36:50.727Z,4.73
2018-09-03T13:39:19.925Z,12.53
2018-09-03T13:41:49.143Z,4.60
2018-09-03T13:44:18.319Z,6.43
2018-09-03T13:46:47.775Z,5.00
2018-09-03T13:49:17.802Z,6.50
2018-09-03T13:51:47.688Z,4.65
2018-09-03T13:54:17.838Z,10.08
2018-09-03T13:56:47.806Z,5.30
2018-09-03T13:59:17.823Z,5.78
2018-09-03T14:01:48.022Z,7.17
2018-09-03T14:04:17.919Z,6.47
2018-09-03T14:06:48.063Z,6.47
2018-09-03T14:09:18.025Z,4.70
2018-09-03T14:11:47.962Z,6.72
2018-09-03T14:14:18.046Z,4.70
2018-09-03T14:16:48.117Z,6.28
2018-09-03T14:19:18.072Z,5.95
2018-09-03T14:21:48.092Z,5.30
2018-09-03T14:24:18.067Z,7.00
2018-09-03T14:26:48.251Z,6.15
2018-09-03T14:29:18.190Z,4.85
2018-09-03T14:31:48.322Z,5.53
2018-09-03T14:34:18.361Z,6.17
2018-09-03T14:36:48.243Z,4.40
2018-09-03T14:39:18.338Z,4.25
2018-09-03T14:41:48.316Z,5.67
2018-09-03T14:44:18.231Z,6.00
2018-09-03T14:46:48.346Z,4.55
2018-09-03T14:49:18.343Z,5.00
2018-09-03T14:51:48.452Z,5.87
2018-09-03T14:54:18.287Z,5.77
2018-09-03T14:56:48.411Z,5.70
2018-09-03T14:59:18.476Z,4.12
2018-09-03T15:01:48.619Z,4.47
2018-09-03T15:04:18.619Z,4.20
2018-09-03T15:06:48.654Z,20.55
2018-09-03T15:09:18.582Z,5.62
2018-09-03T15:11:48.664Z,4.97
2018-09-03T15:14:18.615Z,7.08
2018-09-03T15:16:48.598Z,4.60
2018-09-03T15:19:18.634Z,4.73
2018-09-03T15:21:48.644Z,5.25
2018-09-03T15:24:25.403Z,4.58
2018-09-03T15:26:54.687Z,4.60
2018-09-03T15:29:23.919Z,4.47
2018-09-03T15:31:53.203Z,4.37
2018-09-03T15:34:22.451Z,3.50
2018-09-03T15:36:51.570Z,5.87
2018-09-03T15:39:20.762Z,6.50
2018-09-03T15:41:49.933Z,4.93
2018-09-03T15:44:19.047Z,4.67
2018-09-03T15:46:49.031Z,5.15
2018-09-03T15:49:19.020Z,4.80
2018-09-03T15:51:48.969Z,5.08
2018-09-03T15:54:19.055Z,4.85
2018-09-03T15:56:49.026Z,5.87
2018-09-03T15:59:19.130Z,4.00
2018-09-03T16:01:49.003Z,4.22
2018-09-03T16:04:19.179Z,12.98
2018-09-03T16:06:49.195Z,33.30
2018-09-03T16:09:19.230Z,76.15
2018-09-03T16:11:49.214Z,5.35
2018-09-03T16:14:19.526Z,5.78
2018-09-03T16:16:49.272Z,6.17
2018-09-03T16:19:19.279Z,6.67
2018-09-03T16:21:49.331Z,5.10
2018-09-03T16:24:19.265Z,6.20
2018-09-03T16:26:49.290Z,7.20
2018-09-03T16:29:19.512Z,5.75
2018-09-03T16:31:49.494Z,7.92
2018-09-03T16:34:19.529Z,7.58
2018-09-03T16:36:49.422Z,5.65
2018-09-03T16:39:19.520Z,5.70
2018-09-03T16:41:49.582Z,6.15
2018-09-03T16:44:19.649Z,6.80
2018-09-03T16:46:49.575Z,5.57
2018-09-03T16:49:19.582Z,6.83
2018-09-03T16:51:49.782Z,7.55
2018-09-03T16:54:19.634Z,6.35
2018-09-03T16:56:49.653Z,6.97
2018-09-03T16:59:19.807Z,5.92
2018-09-03T17:01:49.744Z,5.08
2018-09-03T17:04:19.796Z,6.83
2018-09-03T17:06:49.798Z,6.83
2018-09-03T17:09:19.626Z,5.27
2018-09-03T17:11:49.826Z,12.47
2018-09-03T17:14:19.842Z,8.08
2018-09-03T17:16:49.927Z,6.53
2018-09-03T17:19:19.902Z,5.90
2018-09-03T17:21:49.918Z,9.15
2018-09-03T17:24:19.814Z,8.03
2018-09-03T17:26:49.994Z,7.00
2018-09-03T17:29:20.039Z,7.87
2018-09-03T17:31:50.082Z,6.90
2018-09-03T17:34:20.108Z,8.28
2018-09-03T17:36:50.165Z,6.35
2018-09-03T17:39:20.114Z,7.00
2018-09-03T17:41:50.160Z,6.70
2018-09-03T17:44:20.150Z,6.08
2018-09-03T17:46:50.380Z,7.58
2018-09-03T17:49:20.267Z,10.35
2018-09-03T17:51:50.292Z,8.08
2018-09-03T17:54:20.284Z,13.65
2018-09-03T17:56:50.351Z,7.42
2018-09-03T17:59:20.359Z,7.00
2018-09-03T18:01:50.386Z,6.83
2018-09-03T18:04:20.426Z,8.78
2018-09-03T18:06:50.478Z,13.20
2018-09-03T18:09:20.618Z,9.43
2018-09-03T18:11:50.548Z,9.55
2018-09-03T18:14:20.546Z,8.65
2018-09-03T18:16:50.583Z,9.80
2018-09-03T18:19:20.659Z,7.17
2018-09-03T18:21:50.680Z,8.70
2018-09-03T18:24:20.597Z,9.18
2018-09-03T18:26:50.736Z,12.47
2018-09-03T18:29:20.679Z,20.43
2018-09-03T18:31:50.654Z,11.05
2018-09-03T18:34:20.675Z,11.65
2018-09-03T18:36:50.731Z,12.68
2018-09-03T18:39:20.710Z,14.78
2018-09-03T18:41:50.584Z,8.30
2018-09-03T18:44:20.630Z,54.85
2018-09-03T18:46:50.715Z,18.50
2018-09-03T18:49:20.719Z,18.02
2018-09-03T18:51:50.731Z,13.70
2018-09-03T18:54:20.774Z,11.90
2018-09-03T18:56:50.746Z,14.98
2018-09-03T18:59:20.884Z,35.17
2018-09-03T19:01:50.777Z,18.45
2018-09-03T19:04:20.907Z,24.32
2018-09-03T19:06:50.986Z,26.07
2018-09-03T19:09:20.878Z,24.45
2018-09-03T19:11:50.990Z,30.10
2018-09-03T19:14:20.995Z,26.15
2018-09-03T19:16:50.967Z,24.05
2018-09-03T19:19:20.915Z,21.75
2018-09-03T19:21:51.418Z,21.85
2018-09-03T19:24:21.029Z,30.27
2018-09-03T19:26:51.163Z,29.15
2018-09-03T19:29:21.087Z,33.80
2018-09-03T19:31:51.006Z,24.85
2018-09-03T19:34:21.121Z,23.73
2018-09-03T19:36:51.069Z,34.80
2018-09-03T19:39:21.036Z,38.00
2018-09-03T19:41:51.327Z,33.97
2018-09-03T19:44:21.259Z,31.50
2018-09-03T19:46:51.277Z,29.67
2018-09-03T19:49:21.298Z,31.65
2018-09-03T19:51:51.394Z,36.23
2018-09-03T19:54:21.364Z,31.85
2018-09-03T19:56:51.435Z,34.67
2018-09-03T19:59:21.394Z,34.40
2018-09-03T20:01:51.478Z,35.80
2018-09-03T20:04:21.496Z,28.17
2018-09-03T20:06:51.313Z,36.53
2018-09-03T20:09:21.415Z,35.85
2018-09-03T20:11:51.526Z,29.15
2018-09-03T20:14:21.427Z,29.92
2018-09-03T20:16:51.578Z,39.70
2018-09-03T20:19:21.531Z,33.15
2018-09-03T20:21:51.550Z,29.07
2018-09-03T20:24:21.595Z,36.08
2018-09-03T20:26:51.546Z,35.08
2018-09-03T20:29:21.654Z,37.83
2018-09-03T20:31:51.638Z,39.67
2018-09-03T20:34:21.766Z,29.82
2018-09-03T20:36:51.709Z,40.12
2018-09-03T20:39:21.759Z,38.25
2018-09-03T20:41:51.913Z,37.15
2018-09-03T20:44:21.906Z,43.05
2018-09-03T20:46:51.924Z,36.90
2018-09-03T20:49:21.951Z,35.80
2018-09-03T20:51:51.922Z,36.80
2018-09-03T20:54:22.206Z,39.33
2018-09-03T20:56:51.958Z,34.88
2018-09-03T20:59:28.503Z,48.25
2018-09-03T21:01:57.706Z,49.85
2018-09-03T21:04:27.519Z,40.32
2018-09-03T21:06:56.693Z,36.20
2018-09-03T21:09:25.774Z,41.43
2018-09-03T21:11:54.977Z,38.70
2018-09-03T21:14:24.191Z,40.90
2018-09-03T21:16:53.411Z,37.07
2018-09-03T21:19:22.564Z,33.50
2018-09-03T21:21:52.325Z,37.37
2018-09-03T21:24:22.155Z,38.00
2018-09-03T21:26:52.367Z,35.25
2018-09-03T21:29:22.325Z,34.85
2018-09-03T21:31:52.336Z,37.37
2018-09-03T21:34:22.404Z,33.50
2018-09-03T21:36:52.397Z,35.80
2018-09-03T21:39:22.450Z,42.65
2018-09-03T21:41:52.504Z,34.70
2018-09-03T21:44:22.535Z,31.50
2018-09-03T21:46:59.249Z,34.20
2018-09-03T21:49:28.378Z,40.30
2018-09-03T21:51:57.575Z,40.63
2018-09-03T21:54:27.395Z,37.70
2018-09-03T21:56:56.486Z,38.27
2018-09-03T21:59:25.710Z,41.20
2018-09-03T22:01:54.842Z,42.50
2018-09-03T22:04:23.990Z,37.23
2018-09-03T22:06:53.151Z,37.80
2018-09-03T22:09:22.770Z,43.70
2018-09-03T22:11:52.804Z,47.03
2018-09-03T22:14:22.820Z,37.50
2018-09-03T22:16:52.902Z,48.58
2018-09-03T22:19:23.075Z,36.17
2018-09-03T22:21:52.893Z,36.05
2018-09-03T22:24:22.867Z,42.08
2018-09-03T22:26:52.917Z,30.12
2018-09-03T22:29:22.951Z,45.63
2018-09-03T22:31:52.952Z,41.75
2018-09-03T22:34:22.217Z,40.47
2018-09-03T22:36:51.447Z,41.67
2018-09-03T22:39:20.596Z,43.03
2018-09-03T22:41:49.831Z,46.30
2018-09-03T22:44:19.031Z,37.67
2018-09-03T22:46:48.239Z,43.50
2018-09-03T22:49:17.467Z,40.83
2018-09-03T22:51:46.599Z,45.60
2018-09-03T22:54:15.693Z,55.47
2018-09-03T22:56:44.835Z,49.07
2018-09-03T22:59:14.011Z,53.53
2018-09-03T23:01:43.214Z,50.78
2018-09-03T23:04:12.370Z,47.73
2018-09-03T23:06:41.614Z,49.77
2018-09-03T23:09:10.750Z,60.23
2018-09-03T23:11:39.863Z,49.83
2018-09-03T23:14:09.443Z,57.73
2018-09-03T23:16:38.601Z,56.83
2018-09-03T23:19:07.754Z,53.80
2018-09-03T23:21:36.977Z,53.30
2018-09-03T23:24:06.156Z,51.43
2018-09-03T23:26:35.699Z,50.50
2018-09-03T23:29:04.875Z,45.60
2018-09-03T23:31:34.113Z,54.83
2018-09-03T23:34:03.264Z,48.80
2018-09-03T23:36:32.402Z,47.20
2018-09-03T23:39:01.562Z,40.63
2018-09-03T23:41:30.771Z,51.10
2018-09-03T23:43:59.938Z,52.00
2018-09-03T23:46:29.166Z,50.27
2018-09-03T23:48:58.203Z,56.27
2018-09-03T23:51:27.469Z,48.50
2018-09-03T23:53:56.687Z,47.50
2018-09-03T23:56:25.962Z,47.97
2018-09-03T23:58:55.158Z,48.33
